Time;durP1;ratioP1;P1;durP2;ratioP2;P2;SDS_P1;SDS_P2;PMS_P1;PMS_P2;Temp;Humidity;BMP_temperature;BMP_pressure;BME280_temperature;BME280_humidity;BME280_pressure;Samples;Min_cycle;Max_cycle;Signal;HPM_P1;HPM_P2
2022/05/15 00:02:42;;;;;;;7.53;4.00;;;14.00;43.20;;;;;;4941222;29;20689;-78
2022/05/15 00:05:09;;;;;;;5.73;3.83;;;14.00;43.20;;;;;;4942767;29;20217;-77
2022/05/15 00:07:37;;;;;;;5.60;3.63;;;14.00;43.20;;;;;;4941421;29;20504;-77
2022/05/15 00:10:05;;;;;;;4.05;3.20;;;13.90;44.40;;;;;;4941923;29;20434;-78
2022/05/15 00:12:32;;;;;;;6.10;3.53;;;13.80;45.40;;;;;;4943010;29;20218;-78
2022/05/15 00:14:59;;;;;;;6.18;3.05;;;13.70;46.00;;;;;;4943104;29;20441;-78
2022/05/15 00:17:26;;;;;;;4.88;3.60;;;13.70;46.10;;;;;;4944705;29;20325;-77
2022/05/15 00:19:54;;;;;;;5.55;3.83;;;13.70;46.50;;;;;;4922521;29;20276;-78
2022/05/15 00:22:21;;;;;;;5.87;3.80;;;13.70;47.10;;;;;;4920849;29;20680;-77
2022/05/15 00:24:48;;;;;;;4.45;3.70;;;13.60;48.00;;;;;;4927873;29;20470;-79
2022/05/15 00:27:14;;;;;;;6.18;3.88;;;13.60;48.40;;;;;;4922993;29;20235;-78
2022/05/15 00:29:41;;;;;;;4.45;3.40;;;13.50;48.70;;;;;;4936620;29;20243;-78
2022/05/15 00:32:09;;;;;;;6.18;4.25;;;13.40;49.70;;;;;;4939582;29;20211;-78
2022/05/15 00:34:36;;;;;;;4.28;3.83;;;13.40;50.30;;;;;;4939125;29;20779;-78
2022/05/15 00:37:04;;;;;;;10.48;3.50;;;13.30;50.70;;;;;;4939088;29;20337;-77
2022/05/15 00:39:31;;;;;;;4.10;3.70;;;13.20;51.30;;;;;;4938765;29;20246;-78
2022/05/15 00:41:58;;;;;;;4.63;3.65;;;13.10;52.10;;;;;;4938884;29;20220;-78
2022/05/15 00:44:25;;;;;;;7.97;3.97;;;13.10;52.10;;;;;;4938775;29;20211;-77
2022/05/15 00:46:52;;;;;;;3.55;3.25;;;13.10;52.10;;;;;;4940024;29;20233;-77
2022/05/15 00:49:19;;;;;;;7.15;3.60;;;13.10;51.40;;;;;;4939548;29;20302;-78
2022/05/15 00:51:49;;;;;;;4.82;3.88;;;13.10;51.30;;;;;;4939810;29;20216;-79
2022/05/15 00:54:24;;;;;;;4.85;3.92;;;13.10;50.60;;;;;;4953772;29;20218;-79
2022/05/15 00:56:56;;;;;;;3.30;3.00;;;13.10;50.10;;;;;;4958605;29;20218;-79
2022/05/15 00:59:28;;;;;;;3.40;3.10;;;13.20;49.90;;;;;;4943221;29;20500;-79
2022/05/15 01:01:55;;;;;;;5.20;3.72;;;13.10;49.80;;;;;;4939226;29;20545;-78
2022/05/15 01:04:22;;;;;;;5.20;3.65;;;13.10;50.40;;;;;;4939275;29;20254;-79
2022/05/15 01:06:49;;;;;;;6.45;3.60;;;13.10;50.40;;;;;;4939464;29;20270;-78
2022/05/15 01:09:19;;;;;;;5.10;4.18;;;13.20;51.00;;;;;;4964209;28;20202;-77
2022/05/15 01:11:49;;;;;;;4.13;3.60;;;13.10;50.10;;;;;;4960232;28;20230;-80
2022/05/15 01:14:18;;;;;;;6.93;3.97;;;13.10;51.70;;;;;;4955579;28;20195;-77
2022/05/15 01:16:46;;;;;;;7.82;4.95;;;13.10;51.30;;;;;;4942735;29;20277;-80
2022/05/15 01:19:13;;;;;;;4.93;4.05;;;13.10;52.80;;;;;;4945813;29;20261;-78
2022/05/15 01:21:52;;;;;;;5.68;4.43;;;13.00;52.00;;;;;;4954894;29;20194;-82
2022/05/15 01:24:19;;;;;;;5.20;4.07;;;13.00;52.00;;;;;;4955286;28;20218;-79
2022/05/15 01:26:46;;;;;;;4.38;3.53;;;13.00;52.00;;;;;;4957415;28;20270;-79
2022/05/15 01:29:12;;;;;;;3.97;3.67;;;13.00;52.00;;;;;;4959556;28;20186;-82
2022/05/15 01:31:40;;;;;;;4.75;4.25;;;13.00;51.60;;;;;;4947728;28;20559;-77
2022/05/15 01:34:08;;;;;;;5.70;4.28;;;13.00;51.20;;;;;;4939610;29;20233;-77
2022/05/15 01:36:35;;;;;;;11.10;4.50;;;13.00;51.10;;;;;;4939818;29;20228;-77
2022/05/15 01:39:04;;;;;;;4.20;3.63;;;13.00;50.90;;;;;;4938436;29;20217;-77
2022/05/15 01:41:31;;;;;;;4.93;3.78;;;13.00;51.90;;;;;;4938131;29;20249;-78
2022/05/15 01:43:58;;;;;;;8.32;4.63;;;13.00;52.00;;;;;;4937713;29;20221;-78
2022/05/15 01:46:27;;;;;;;5.30;4.65;;;12.90;51.90;;;;;;4937399;29;20676;-78
2022/05/15 01:48:55;;;;;;;6.15;5.15;;;12.80;53.20;;;;;;4939443;29;20210;-76
2022/05/15 01:51:23;;;;;;;4.82;3.95;;;12.70;54.30;;;;;;4938837;29;20293;-78
2022/05/15 01:53:50;;;;;;;5.28;4.78;;;12.70;55.20;;;;;;4937795;29;20622;-78
2022/05/15 01:56:18;;;;;;;5.90;4.70;;;12.60;54.60;;;;;;4937242;29;20254;-78
2022/05/15 01:58:45;;;;;;;6.35;4.25;;;12.60;54.70;;;;;;4936600;29;20215;-78
2022/05/15 02:01:12;;;;;;;5.85;4.55;;;12.60;54.00;;;;;;4937262;29;20210;-79
2022/05/15 02:03:39;;;;;;;6.60;4.03;;;12.70;51.80;;;;;;4935998;29;20261;-77
2022/05/15 02:06:06;;;;;;;4.10;3.70;;;12.70;51.80;;;;;;4936053;29;20576;-78
2022/05/15 02:08:34;;;;;;;4.93;4.35;;;12.70;51.80;;;;;;4937664;29;20214;-81
2022/05/15 02:11:01;;;;;;;5.07;4.57;;;12.60;52.90;;;;;;4937889;29;20209;-79
2022/05/15 02:13:30;;;;;;;4.75;3.75;;;12.70;53.00;;;;;;4938288;29;20221;-78
2022/05/15 02:15:57;;;;;;;5.68;4.55;;;12.60;53.50;;;;;;4938179;29;20423;-77
2022/05/15 02:18:28;;;;;;;6.80;4.47;;;12.50;54.60;;;;;;4937571;29;20318;-78
2022/05/15 02:20:55;;;;;;;5.78;4.97;;;12.40;56.00;;;;;;4937644;29;20202;-77
2022/05/15 02:23:22;;;;;;;5.32;4.75;;;12.40;57.10;;;;;;4937526;29;20221;-79
2022/05/15 02:25:49;;;;;;;4.88;4.13;;;12.30;57.90;;;;;;4937562;29;20206;-77
2022/05/15 02:28:16;;;;;;;7.97;4.80;;;12.20;58.80;;;;;;4945443;29;20321;-77
2022/05/15 02:30:44;;;;;;;6.43;4.15;;;12.20;59.30;;;;;;4939514;29;20207;-76
2022/05/15 02:33:11;;;;;;;5.28;4.72;;;12.20;59.40;;;;;;4936725;29;20211;-77
2022/05/15 02:35:38;;;;;;;5.30;4.75;;;12.10;60.00;;;;;;4936182;29;20218;-77
2022/05/15 02:38:05;;;;;;;6.82;4.20;;;12.10;60.60;;;;;;4936152;29;20223;-77
2022/05/15 02:40:32;;;;;;;13.43;4.85;;;12.00;60.50;;;;;;4936025;29;20224;-76
2022/05/15 02:42:59;;;;;;;5.20;4.38;;;12.00;60.60;;;;;;4936242;29;20221;-77
2022/05/15 02:45:26;;;;;;;5.97;4.43;;;11.90;60.40;;;;;;4942076;29;20274;-77
2022/05/15 02:47:54;;;;;;;5.28;4.70;;;11.80;61.00;;;;;;4940746;29;20321;-77
2022/05/15 02:53:07;;;;;;;5.13;4.50;;;11.80;60.30;;;;;;4940400;29;20250;-77
2022/05/15 02:55:34;;;;;;;5.20;4.70;;;11.80;60.30;;;;;;4940752;29;20212;-78
2022/05/15 02:58:01;;;;;;;6.90;4.20;;;11.70;60.20;;;;;;4939433;29;20230;-77
2022/05/15 03:00:28;;;;;;;5.35;4.35;;;11.70;60.20;;;;;;4940273;29;20214;-77
2022/05/15 03:02:56;;;;;;;5.25;4.53;;;11.80;60.30;;;;;;4939802;29;20704;-77
2022/05/15 03:05:23;;;;;;;4.65;4.20;;;11.70;60.20;;;;;;4940246;29;20210;-77
2022/05/15 03:07:50;;;;;;;6.93;4.30;;;11.70;60.20;;;;;;4940061;29;20284;-77
2022/05/15 03:10:21;;;;;;;4.95;4.55;;;11.70;60.20;;;;;;4940315;29;20216;-77
2022/05/15 03:12:48;;;;;;;5.93;4.72;;;11.60;60.10;;;;;;4939510;29;20747;-76
2022/05/15 03:15:15;;;;;;;8.55;5.10;;;11.60;60.90;;;;;;4940168;29;20217;-76
2022/05/15 03:17:43;;;;;;;5.03;4.45;;;11.60;60.70;;;;;;4940270;29;20657;-76
2022/05/15 03:20:14;;;;;;;5.00;3.95;;;11.60;60.20;;;;;;4939888;29;20203;-77
2022/05/15 03:22:41;;;;;;;7.65;4.40;;;11.60;60.20;;;;;;4940512;29;20206;-76
2022/05/15 03:25:09;;;;;;;6.55;4.50;;;11.60;60.30;;;;;;4940538;29;20221;-79
2022/05/15 03:27:36;;;;;;;5.10;4.60;;;11.60;60.80;;;;;;4941462;29;20234;-77
2022/05/15 03:30:04;;;;;;;4.95;4.45;;;11.50;60.00;;;;;;4941240;29;20202;-77
2022/05/15 03:32:31;;;;;;;7.50;4.20;;;11.50;60.00;;;;;;4942211;29;20252;-76
2022/05/15 03:34:58;;;;;;;5.40;4.90;;;11.50;60.00;;;;;;4942659;29;20205;-77
2022/05/15 03:37:26;;;;;;;5.15;4.65;;;11.40;61.00;;;;;;4948742;29;20235;-76
2022/05/15 03:39:54;;;;;;;6.80;5.10;;;11.40;61.50;;;;;;4949682;29;20218;-77
2022/05/15 03:42:22;;;;;;;9.60;4.72;;;11.40;61.70;;;;;;4958062;29;20231;-77
2022/05/15 03:44:49;;;;;;;5.35;4.68;;;11.40;62.60;;;;;;4953983;29;20214;-77
2022/05/15 03:47:16;;;;;;;5.55;4.95;;;11.30;63.20;;;;;;4958867;29;20257;-80
2022/05/15 03:49:42;;;;;;;7.07;5.95;;;11.30;64.10;;;;;;4952034;29;20841;-76
2022/05/15 03:52:10;;;;;;;5.60;5.10;;;11.40;66.40;;;;;;4955643;28;20270;-76
2022/05/15 03:54:39;;;;;;;6.30;5.72;;;11.30;68.80;;;;;;4939821;29;20683;-77
2022/05/15 03:57:09;;;;;;;6.53;5.88;;;11.30;69.70;;;;;;4939604;29;20248;-77
2022/05/15 03:59:38;;;;;;;7.38;5.15;;;11.20;70.90;;;;;;4940233;29;20203;-76
2022/05/15 04:02:07;;;;;;;5.53;5.03;;;11.20;71.20;;;;;;4939400;29;20203;-77
2022/05/15 04:04:35;;;;;;;9.15;5.88;;;11.20;70.50;;;;;;4939162;29;20220;-77
2022/05/15 04:07:02;;;;;;;5.93;5.07;;;11.20;69.80;;;;;;4939213;29;20233;-77
2022/05/15 04:09:31;;;;;;;7.90;5.15;;;11.20;69.20;;;;;;4938656;29;20214;-77
2022/05/15 04:11:59;;;;;;;5.78;5.15;;;11.30;68.80;;;;;;4939122;29;20207;-76
2022/05/15 04:14:26;;;;;;;7.20;4.43;;;11.30;68.00;;;;;;4939024;29;20366;-77
2022/05/15 04:16:53;;;;;;;8.07;5.00;;;11.40;66.90;;;;;;4938412;29;20326;-78
2022/05/15 04:19:20;;;;;;;6.03;4.40;;;11.40;66.50;;;;;;4937947;29;20257;-76
2022/05/15 04:21:47;;;;;;;6.30;4.15;;;11.50;65.20;;;;;;4938590;29;20679;-76
2022/05/15 04:24:15;;;;;;;4.80;4.30;;;11.60;64.20;;;;;;4938371;29;20290;-78
2022/05/15 04:26:44;;;;;;;4.63;3.97;;;11.70;62.90;;;;;;4938591;29;20316;-77
2022/05/15 04:29:12;;;;;;;10.15;4.20;;;11.80;61.30;;;;;;4938244;29;20206;-77
2022/05/15 04:31:39;;;;;;;4.57;4.10;;;11.90;60.40;;;;;;4938864;29;20261;-77
2022/05/15 04:34:06;;;;;;;4.22;3.75;;;11.90;60.40;;;;;;4942478;29;20231;-76
2022/05/15 04:36:35;;;;;;;5.90;4.35;;;12.00;60.30;;;;;;4942371;29;20621;-78
2022/05/15 04:39:03;;;;;;;4.35;3.95;;;12.10;58.80;;;;;;4954479;29;20242;-77
2022/05/15 04:41:30;;;;;;;4.70;4.20;;;12.30;58.10;;;;;;4964796;29;20198;-78
2022/05/15 04:43:57;;;;;;;6.05;4.10;;;12.40;57.90;;;;;;4945794;29;20301;-78
2022/05/15 04:46:29;;;;;;;5.40;4.30;;;12.60;56.50;;;;;;4939197;29;20659;-77
2022/05/15 04:48:56;;;;;;;3.67;3.28;;;13.00;54.40;;;;;;4938280;29;20234;-78
2022/05/15 04:51:23;;;;;;;4.00;3.40;;;13.50;52.50;;;;;;4937187;29;20217;-78
2022/05/15 04:53:50;;;;;;;4.27;3.63;;;13.90;50.90;;;;;;4937440;29;20452;-79
2022/05/15 04:56:17;;;;;;;4.13;3.73;;;14.30;48.90;;;;;;4937973;29;20557;-77
2022/05/15 04:58:44;;;;;;;6.70;3.67;;;14.90;46.70;;;;;;4937198;29;20442;-76
2022/05/15 05:01:11;;;;;;;4.83;3.80;;;15.20;44.40;;;;;;4938493;29;20455;-77
2022/05/15 05:03:39;;;;;;;4.57;3.90;;;15.40;44.50;;;;;;4942381;29;20430;-78
2022/05/15 05:06:07;;;;;;;10.20;4.43;;;15.50;43.70;;;;;;4940048;29;21074;-76
2022/05/15 05:08:34;;;;;;;4.00;3.70;;;15.80;43.90;;;;;;4940203;29;20494;-76
2022/05/15 05:11:01;;;;;;;3.90;3.60;;;16.10;41.80;;;;;;4944951;29;20450;-76
2022/05/15 05:13:28;;;;;;;4.13;3.70;;;15.80;42.20;;;;;;4939204;29;20462;-77
2022/05/15 05:15:55;;;;;;;4.10;3.70;;;15.60;42.80;;;;;;4937634;29;21001;-76
2022/05/15 05:18:22;;;;;;;4.00;3.63;;;16.50;41.40;;;;;;4938029;29;20489;-76
2022/05/15 05:20:50;;;;;;;5.50;3.67;;;16.70;39.40;;;;;;4937556;29;20466;-76
2022/05/15 05:23:17;;;;;;;4.20;3.90;;;16.60;40.20;;;;;;4938918;29;20778;-77
2022/05/15 05:25:44;;;;;;;4.30;3.90;;;16.30;41.40;;;;;;4945639;29;20454;-77
2022/05/15 05:28:11;;;;;;;4.10;3.70;;;16.70;40.00;;;;;;4948834;29;20461;-77
2022/05/15 05:30:38;;;;;;;6.00;4.10;;;16.20;41.30;;;;;;4945928;29;20458;-76
2022/05/15 05:33:06;;;;;;;6.00;3.63;;;15.90;42.90;;;;;;4939860;29;20437;-78
2022/05/15 05:35:35;;;;;;;4.37;3.97;;;16.00;41.90;;;;;;4937596;29;20429;-78
2022/05/15 05:38:04;;;;;;;5.50;3.80;;;16.40;42.20;;;;;;4937454;29;20864;-77
2022/05/15 05:40:31;;;;;;;5.73;3.80;;;16.90;40.20;;;;;;4937239;29;20435;-76
2022/05/15 05:42:57;;;;;;;4.93;3.70;;;17.10;39.70;;;;;;4937721;29;20509;-76
2022/05/15 05:45:24;;;;;;;6.57;3.90;;;17.60;38.60;;;;;;4937780;29;20466;-76
2022/05/15 05:47:52;;;;;;;4.13;3.47;;;17.60;38.20;;;;;;4937513;29;20498;-76
2022/05/15 05:50:21;;;;;;;5.17;3.50;;;17.50;37.60;;;;;;4937415;29;20448;-76
2022/05/15 05:52:49;;;;;;;6.87;4.47;;;17.40;38.60;;;;;;4937429;29;20462;-77
2022/05/15 05:55:19;;;;;;;4.43;4.03;;;17.50;38.50;;;;;;4939955;29;20454;-77
2022/05/15 05:57:47;;;;;;;4.00;3.60;;;17.50;38.40;;;;;;4939694;29;20573;-79
2022/05/15 06:00:17;;;;;;;3.73;3.33;;;17.80;38.00;;;;;;4953401;29;20522;-78
2022/05/15 06:02:44;;;;;;;4.60;3.37;;;18.30;37.20;;;;;;4943492;29;20462;-77
2022/05/15 06:05:09;;;;;;;6.13;3.77;;;18.30;36.30;;;;;;4940168;29;20458;-77
2022/05/15 06:07:38;;;;;;;3.93;3.33;;;17.90;36.80;;;;;;4949256;28;20533;-77
2022/05/15 06:10:06;;;;;;;4.30;3.00;;;17.90;36.80;;;;;;4937780;29;20437;-78
2022/05/15 06:12:34;;;;;;;7.47;3.80;;;17.80;36.70;;;;;;4936893;29;20474;-78
2022/05/15 06:15:01;;;;;;;4.10;3.60;;;17.70;36.70;;;;;;4936834;29;20441;-77
2022/05/15 06:17:30;;;;;;;4.33;3.80;;;17.90;36.80;;;;;;4937374;29;20495;-79
2022/05/15 06:19:57;;;;;;;9.33;3.97;;;17.90;36.80;;;;;;4935956;29;20523;-78
2022/05/15 06:22:24;;;;;;;6.57;3.53;;;18.10;37.00;;;;;;4936718;29;20462;-79
2022/05/15 06:24:51;;;;;;;4.40;3.53;;;18.30;37.20;;;;;;4939589;29;20971;-77
2022/05/15 06:27:18;;;;;;;7.73;3.60;;;18.50;37.20;;;;;;4937757;29;20483;-78
2022/05/15 06:29:47;;;;;;;4.50;3.57;;;18.70;36.70;;;;;;4938413;29;20497;-77
2022/05/15 06:32:14;;;;;;;4.80;3.70;;;18.80;35.80;;;;;;4939328;29;20554;-78
2022/05/15 06:34:41;;;;;;;4.77;3.50;;;19.20;35.20;;;;;;4939482;29;20474;-79
2022/05/15 06:37:07;;;;;;;4.13;3.47;;;19.10;35.00;;;;;;4939234;29;20853;-79
2022/05/15 06:39:34;;;;;;;4.67;3.73;;;19.20;35.30;;;;;;4937130;29;20558;-78
2022/05/15 06:42:01;;;;;;;6.30;3.37;;;19.60;34.10;;;;;;4936700;29;20943;-78
2022/05/15 06:44:29;;;;;;;3.57;3.27;;;19.40;34.70;;;;;;4936829;29;20549;-77
2022/05/15 06:46:57;;;;;;;3.90;3.43;;;19.80;34.10;;;;;;4936459;29;20469;-79
2022/05/15 06:49:24;;;;;;;4.53;3.80;;;19.70;33.70;;;;;;4936628;29;20505;-79
2022/05/15 06:51:51;;;;;;;8.13;4.43;;;18.80;35.50;;;;;;4937245;29;20469;-78
2022/05/15 06:54:18;;;;;;;5.57;3.80;;;18.30;37.30;;;;;;4936743;29;20469;-77
2022/05/15 06:59:29;;;;;;;4.50;3.27;;;18.50;37.40;;;;;;4936908;29;20450;-78
2022/05/15 07:01:58;;;;;;;4.50;3.23;;;18.50;37.40;;;;;;4934748;29;20458;-78
2022/05/15 07:04:24;;;;;;;10.20;4.10;;;18.50;37.40;;;;;;4931950;29;20433;-78
2022/05/15 07:06:51;;;;;;;6.70;4.20;;;18.50;37.40;;;;;;4934801;29;20484;-79
2022/05/15 07:09:18;;;;;;;6.30;3.80;;;18.60;37.50;;;;;;4918010;29;21061;-78
2022/05/15 07:11:46;;;;;;;5.87;4.10;;;18.70;37.60;;;;;;4917400;29;20463;-79
2022/05/15 07:14:13;;;;;;;5.30;3.63;;;18.90;37.50;;;;;;4918458;29;20498;-77
2022/05/15 07:16:40;;;;;;;3.70;3.37;;;19.00;35.70;;;;;;4918424;29;20494;-79
2022/05/15 07:19:08;;;;;;;4.40;3.53;;;19.00;36.30;;;;;;4935421;29;20458;-79
2022/05/15 07:21:35;;;;;;;8.70;4.00;;;19.20;36.40;;;;;;4936029;29;20554;-77
2022/05/15 07:24:02;;;;;;;3.70;2.80;;;19.20;35.50;;;;;;4941302;29;20490;-78
2022/05/15 07:26:29;;;;;;;7.30;3.20;;;19.30;35.60;;;;;;4944075;29;20449;-79
2022/05/15 07:28:56;;;;;;;5.97;3.80;;;19.20;35.70;;;;;;4940209;29;20464;-80
2022/05/15 07:31:23;;;;;;;4.27;3.53;;;19.10;35.40;;;;;;4938621;29;20553;-79
2022/05/15 07:33:50;;;;;;;7.30;3.40;;;19.30;35.60;;;;;;4940644;29;20448;-78
2022/05/15 07:36:19;;;;;;;3.77;2.90;;;19.30;35.10;;;;;;4941062;29;20509;-79
2022/05/15 07:38:46;;;;;;;3.53;2.93;;;19.50;35.00;;;;;;4940626;29;20425;-79
2022/05/15 07:41:14;;;;;;;8.50;3.60;;;19.80;34.80;;;;;;4941643;29;20448;-79
2022/05/15 07:43:41;;;;;;;6.10;3.03;;;19.90;33.80;;;;;;4939964;29;20474;-79
2022/05/15 07:46:09;;;;;;;4.40;3.20;;;20.10;34.30;;;;;;4940840;29;20482;-78
2022/05/15 07:48:35;;;;;;;3.67;3.20;;;20.20;34.60;;;;;;4941613;29;20850;-78
2022/05/15 07:51:02;;;;;;;4.67;3.37;;;20.10;34.30;;;;;;4939191;29;20467;-80
2022/05/15 07:53:31;;;;;;;3.00;2.80;;;20.30;33.60;;;;;;4943767;29;20496;-79
2022/05/15 07:56:03;;;;;;;5.13;2.77;;;20.50;33.10;;;;;;4935466;29;20451;-79
2022/05/15 07:58:30;;;;;;;5.93;3.03;;;20.50;33.00;;;;;;4944957;29;20498;-78
2022/05/15 08:00:57;;;;;;;2.93;2.70;;;20.50;32.40;;;;;;4940719;29;20513;-78
2022/05/15 08:03:24;;;;;;;4.17;2.67;;;20.60;33.00;;;;;;4942916;29;20475;-79
2022/05/15 08:08:37;;;;;;;4.80;2.63;;;20.90;32.10;;;;;;4927118;29;20473;-78
2022/05/15 08:11:04;;;;;;;3.77;2.97;;;21.00;31.20;;;;;;4929818;29;20451;-79
2022/05/15 08:13:31;;;;;;;3.23;2.70;;;21.10;30.50;;;;;;4923444;29;20985;-79
2022/05/15 08:15:59;;;;;;;3.80;2.30;;;21.20;31.30;;;;;;4938135;29;20441;-80
2022/05/15 08:23:57;;;;;;;2.50;2.10;;;21.50;30.00;;;;;;4961882;28;20564;-78
2022/05/15 08:26:25;;;;;;;8.83;2.90;;;21.70;30.00;;;;;;4945278;28;20489;-76
2022/05/15 08:28:53;;;;;;;3.00;2.33;;;21.90;29.40;;;;;;4951228;28;20471;-77
2022/05/15 08:31:21;;;;;;;4.37;2.20;;;22.00;29.20;;;;;;4958991;28;20451;-77
2022/05/15 08:33:48;;;;;;;5.30;2.20;;;22.10;28.20;;;;;;4946344;29;20566;-77
2022/05/15 08:36:16;;;;;;;5.20;1.90;;;22.30;28.10;;;;;;4944071;29;20532;-77
2022/05/15 08:38:44;;;;;;;4.47;2.00;;;22.30;27.70;;;;;;4952525;29;20517;-77
2022/05/15 08:41:18;;;;;;;2.10;1.90;;;22.50;26.40;;;;;;4946451;29;20467;-78
2022/05/15 08:43:49;;;;;;;4.17;2.30;;;22.80;27.10;;;;;;4951366;29;20460;-79
2022/05/15 08:46:31;;;;;;;4.17;2.50;;;22.50;27.40;;;;;;4953638;28;20504;-78
2022/05/15 08:49:07;;;;;;;2.37;2.20;;;22.60;28.00;;;;;;4942411;29;20544;-77
2022/05/15 08:51:35;;;;;;;2.90;2.10;;;22.80;27.50;;;;;;4949879;29;20480;-79
2022/05/15 08:54:06;;;;;;;2.30;1.90;;;23.10;26.70;;;;;;4947045;29;20784;-78
2022/05/15 08:56:49;;;;;;;3.17;2.00;;;23.00;26.60;;;;;;4943502;29;20489;-80
2022/05/15 08:59:23;;;;;;;3.90;2.30;;;23.00;27.00;;;;;;4948646;29;20429;-79
2022/05/15 09:01:54;;;;;;;2.20;1.70;;;23.20;26.00;;;;;;4929585;29;20455;-80
2022/05/15 09:04:25;;;;;;;3.90;2.00;;;23.40;24.80;;;;;;4930451;29;20450;-80
2022/05/15 09:07:02;;;;;;;5.77;2.20;;;23.30;24.50;;;;;;4941918;29;20485;-78
2022/05/15 09:09:39;;;;;;;4.67;2.57;;;23.30;24.00;;;;;;4936479;29;20503;-78
2022/05/15 09:12:15;;;;;;;2.93;2.07;;;23.20;24.90;;;;;;4942869;29;20441;-79
2022/05/15 09:14:53;;;;;;;6.00;1.50;;;23.20;24.50;;;;;;4939317;29;20545;-79
2022/05/15 09:17:27;;;;;;;3.20;1.70;;;23.20;25.10;;;;;;4940413;29;20489;-79
2022/05/15 09:19:56;;;;;;;3.40;1.70;;;23.40;25.30;;;;;;4940894;29;20528;-80
2022/05/15 09:22:28;;;;;;;3.17;2.00;;;23.60;23.30;;;;;;4943357;29;20442;-78
2022/05/15 09:24:55;;;;;;;3.90;2.23;;;23.50;24.30;;;;;;4941157;29;20498;-78
2022/05/15 09:27:26;;;;;;;3.20;1.80;;;23.60;23.80;;;;;;4940791;29;20843;-80
2022/05/15 09:29:55;;;;;;;3.47;1.93;;;23.50;23.20;;;;;;4939861;29;23750;-78
2022/05/15 09:32:31;;;;;;;2.00;1.80;;;23.50;23.20;;;;;;4939777;29;20486;-79
2022/05/15 09:35:01;;;;;;;3.47;2.10;;;23.70;23.40;;;;;;4943095;29;20471;-78
2022/05/15 09:40:22;;;;;;;3.73;2.10;;;24.20;23.80;;;;;;4943735;29;20442;-80
2022/05/15 09:45:54;;;;;;;4.50;2.27;;;24.20;23.70;;;;;;4958277;28;20501;-81
2022/05/15 09:48:25;;;;;;;2.70;1.97;;;24.30;23.80;;;;;;4960182;28;20413;-81
2022/05/15 09:51:08;;;;;;;2.30;1.63;;;24.50;23.90;;;;;;4959514;28;20479;-79
2022/05/15 09:53:41;;;;;;;3.53;1.80;;;24.40;23.50;;;;;;4954378;29;20466;-79
2022/05/15 09:56:11;;;;;;;5.90;1.60;;;24.30;22.10;;;;;;4950117;29;20480;-78
2022/05/15 09:58:44;;;;;;;2.60;1.90;;;24.20;23.00;;;;;;4942091;29;20437;-78
2022/05/15 10:01:28;;;;;;;2.30;1.83;;;24.10;23.60;;;;;;4939592;29;20437;-77
2022/05/15 10:03:58;;;;;;;4.97;2.00;;;24.50;23.90;;;;;;4949930;29;20429;-78
2022/05/15 10:06:27;;;;;;;3.60;2.00;;;24.50;23.20;;;;;;4942926;29;20467;-77
2022/05/15 10:09:12;;;;;;;3.70;1.97;;;24.60;23.50;;;;;;4946983;29;20526;-79
2022/05/15 10:11:43;;;;;;;1.70;1.60;;;24.70;22.80;;;;;;4934088;29;20497;-78
2022/05/15 10:14:26;;;;;;;3.43;2.07;;;24.90;21.70;;;;;;4937286;29;20438;-81
2022/05/15 10:16:55;;;;;;;1.93;1.70;;;24.80;22.40;;;;;;4937420;29;20493;-78
2022/05/15 10:19:32;;;;;;;2.20;1.97;;;24.70;22.30;;;;;;4937819;29;20443;-79
2022/05/15 10:22:11;;;;;;;2.20;1.97;;;24.70;22.30;;;;;;4937709;29;20505;-79
2022/05/15 10:24:43;;;;;;;4.70;2.00;;;24.90;22.50;;;;;;4931590;29;20425;-77
2022/05/15 10:27:15;;;;;;;5.70;2.20;;;24.80;22.20;;;;;;4937383;29;20486;-78
2022/05/15 10:29:50;;;;;;;4.73;1.90;;;25.00;21.30;;;;;;4942740;29;20996;-77
2022/05/15 10:32:22;;;;;;;3.20;1.90;;;24.90;22.00;;;;;;4935051;29;20482;-78
2022/05/15 10:34:49;;;;;;;5.50;2.00;;;25.20;21.90;;;;;;4932375;29;20551;-78
2022/05/15 10:37:44;;;;;;;6.07;1.97;;;25.50;22.00;;;;;;4932312;29;20522;-78
2022/05/15 10:40:25;;;;;;;5.00;2.50;;;25.60;21.10;;;;;;4925752;29;20959;-78
2022/05/15 10:43:03;;;;;;;3.17;1.93;;;25.60;20.80;;;;;;4952225;28;20522;-79
2022/05/15 10:45:38;;;;;;;2.87;1.90;;;25.30;20.50;;;;;;4943195;29;20455;-79
2022/05/15 10:48:25;;;;;;;3.37;1.70;;;25.30;20.90;;;;;;4950309;29;20474;-80
2022/05/15 10:51:00;;;;;;;3.20;2.20;;;25.30;20.60;;;;;;4956623;28;20463;-79
2022/05/15 10:59:41;;;;;;;3.80;2.10;;;25.40;20.70;;;;;;4935758;29;20496;-78
2022/05/15 11:02:25;;;;;;;2.57;1.80;;;25.60;20.40;;;;;;4936404;29;20465;-78
2022/05/15 11:04:57;;;;;;;2.17;2.07;;;25.90;21.20;;;;;;4936905;29;20502;-78
2022/05/15 11:07:33;;;;;;;1.77;1.50;;;26.20;20.10;;;;;;4938922;29;20457;-79
2022/05/15 11:10:10;;;;;;;8.30;2.10;;;26.10;20.20;;;;;;4939754;29;20542;-78
2022/05/15 11:12:45;;;;;;;2.77;2.07;;;26.20;20.60;;;;;;4940665;29;20481;-78
2022/05/15 11:15:40;;;;;;;5.80;2.10;;;26.40;20.30;;;;;;4928780;29;20430;-78
2022/05/15 11:18:28;;;;;;;7.30;2.00;;;26.10;19.70;;;;;;4930906;29;20480;-79
2022/05/15 11:21:01;;;;;;;6.47;2.10;;;26.40;18.70;;;;;;4920639;29;20453;-78
2022/05/15 11:23:32;;;;;;;3.60;2.10;;;26.60;19.70;;;;;;4921968;29;20465;-79
2022/05/15 11:26:06;;;;;;;2.77;1.90;;;26.60;18.40;;;;;;4942030;29;20527;-79
2022/05/15 11:28:45;;;;;;;3.03;1.80;;;26.30;19.20;;;;;;4942068;29;20476;-78
2022/05/15 11:31:16;;;;;;;2.83;2.10;;;25.70;20.10;;;;;;4942221;29;20480;-78
2022/05/15 11:33:54;;;;;;;4.43;2.50;;;26.00;20.30;;;;;;4942740;29;20751;-77
2022/05/15 11:36:36;;;;;;;2.80;1.50;;;26.40;19.90;;;;;;4943425;29;20822;-79
2022/05/15 11:39:22;;;;;;;2.23;1.90;;;26.10;19.80;;;;;;4941264;29;20458;-79
2022/05/15 11:42:14;;;;;;;2.90;2.10;;;26.20;20.20;;;;;;4922316;29;20474;-78
2022/05/15 11:44:44;;;;;;;6.37;1.60;;;26.00;20.10;;;;;;4917831;29;20520;-78
2022/05/15 11:47:35;;;;;;;3.67;2.00;;;26.10;20.30;;;;;;4935941;29;20447;-78
2022/05/15 11:50:12;;;;;;;1.97;1.77;;;26.30;19.80;;;;;;4943807;29;20487;-77
2022/05/15 11:53:05;;;;;;;4.40;2.33;;;26.30;20.30;;;;;;4947509;29;20423;-80
2022/05/15 11:55:42;;;;;;;3.70;2.03;;;26.50;19.60;;;;;;4945338;29;20431;-77
2022/05/15 11:58:17;;;;;;;3.83;1.70;;;26.40;19.90;;;;;;4941039;29;20507;-78
2022/05/15 12:00:59;;;;;;;3.50;2.00;;;26.50;19.80;;;;;;4939083;29;20822;-78
2022/05/15 12:03:47;;;;;;;4.17;2.53;;;26.60;19.80;;;;;;4940337;29;20496;-78
2022/05/15 12:06:18;;;;;;;2.30;2.10;;;26.60;20.00;;;;;;4939008;29;20500;-79
2022/05/15 12:08:49;;;;;;;3.50;2.33;;;27.00;19.90;;;;;;4922938;29;20455;-79
2022/05/15 12:11:33;;;;;;;2.90;2.20;;;27.00;19.80;;;;;;4932101;29;20485;-79
2022/05/15 12:14:20;;;;;;;2.23;2.03;;;26.80;19.60;;;;;;4944765;29;20941;-79
2022/05/15 12:17:00;;;;;;;5.40;2.30;;;26.80;19.90;;;;;;4959314;28;20518;-78
2022/05/15 12:19:30;;;;;;;4.37;1.73;;;26.90;20.10;;;;;;4958115;28;20556;-78
2022/05/15 12:22:01;;;;;;;4.97;2.00;;;26.90;20.30;;;;;;4940501;29;20462;-78
2022/05/15 12:24:34;;;;;;;3.50;1.90;;;26.90;20.20;;;;;;4939058;29;20479;-79
2022/05/15 12:27:23;;;;;;;2.23;2.03;;;27.00;19.80;;;;;;4938475;29;21025;-76
2022/05/15 12:30:15;;;;;;;3.20;2.20;;;26.50;20.30;;;;;;4939190;29;20520;-79
2022/05/15 12:32:45;;;;;;;3.27;2.03;;;26.80;20.40;;;;;;4937468;29;20465;-79
2022/05/15 12:35:15;;;;;;;3.33;1.97;;;26.90;21.00;;;;;;4938447;29;20462;-77
2022/05/15 12:37:56;;;;;;;2.70;1.97;;;27.10;20.40;;;;;;4938031;29;20495;-77
2022/05/15 12:40:27;;;;;;;1.83;1.70;;;27.10;20.60;;;;;;4938838;29;20489;-78
2022/05/15 12:42:54;;;;;;;3.53;1.93;;;27.40;19.80;;;;;;4940382;29;20476;-78
2022/05/15 12:45:22;;;;;;;6.40;2.23;;;27.40;19.70;;;;;;4940432;29;20466;-78
2022/05/15 12:48:06;;;;;;;2.40;2.10;;;27.20;19.80;;;;;;4941263;29;20521;-78
2022/05/15 12:50:35;;;;;;;4.47;2.17;;;27.40;20.10;;;;;;4940522;29;20567;-78
2022/05/15 12:53:03;;;;;;;5.93;2.27;;;27.10;21.10;;;;;;4935697;29;20523;-77
2022/05/15 12:55:33;;;;;;;3.60;2.27;;;27.10;21.20;;;;;;4923068;29;20494;-78
2022/05/15 12:58:05;;;;;;;2.80;2.13;;;26.90;20.20;;;;;;4938864;29;20591;-79
2022/05/15 13:00:35;;;;;;;5.20;2.40;;;26.90;20.80;;;;;;4926581;29;20459;-77
2022/05/15 13:03:05;;;;;;;2.37;2.17;;;27.10;20.90;;;;;;4947627;29;20465;-78
2022/05/15 13:05:35;;;;;;;5.50;3.23;;;27.30;21.20;;;;;;4955861;29;20472;-78
2022/05/15 13:08:05;;;;;;;3.73;2.33;;;26.90;21.50;;;;;;4951117;28;20474;-78
2022/05/15 13:10:34;;;;;;;2.80;2.00;;;27.00;21.10;;;;;;4956902;28;20513;-79
2022/05/15 13:13:05;;;;;;;2.53;2.33;;;27.10;20.20;;;;;;4940389;29;20994;-76
2022/05/15 13:15:34;;;;;;;2.50;2.20;;;27.10;19.80;;;;;;4946370;29;20552;-78
2022/05/15 13:18:06;;;;;;;2.97;2.13;;;27.20;20.10;;;;;;4948753;29;20492;-78
2022/05/15 13:20:39;;;;;;;4.43;2.50;;;27.40;19.60;;;;;;4922437;29;20495;-76
2022/05/15 13:23:11;;;;;;;2.50;1.97;;;27.60;20.00;;;;;;4939227;29;20458;-77
2022/05/15 13:25:40;;;;;;;3.00;1.80;;;27.40;19.60;;;;;;4935423;29;20527;-78
2022/05/15 13:28:08;;;;;;;2.40;1.87;;;27.20;20.00;;;;;;4938081;28;20826;-78